Time;durP1;ratioP1;P1;durP2;ratioP2;P2;SDS_P1;SDS_P2;PMS_P1;PMS_P2;Temp;Humidity;BMP_temperature;BMP_pressure;BME280_temperature;BME280_humidity;BME280_pressure;Samples;Min_cycle;Max_cycle;Signal;HPM_P1;HPM_P2
2023/09/23 00:01:20;;;;;;;300.17;171.57;;;12.90;99.90;;;;;;6245387;23;20023;-89
2023/09/23 00:03:47;;;;;;;300.80;172.53;;;12.90;99.90;;;;;;6247762;22;20243;-88
2023/09/23 00:06:13;;;;;;;299.80;172.27;;;12.90;99.90;;;;;;6219568;23;20251;-89
2023/09/23 00:08:41;;;;;;;298.83;171.67;;;12.90;99.90;;;;;;6221726;23;20020;-90
2023/09/23 00:11:08;;;;;;;299.67;173.13;;;12.90;99.90;;;;;;6247080;22;20463;-88
2023/09/23 00:13:35;;;;;;;299.40;172.37;;;13.00;99.90;;;;;;6246156;23;20024;-89
2023/09/23 00:16:10;;;;;;;300.07;171.43;;;13.20;99.90;;;;;;6246199;23;20398;-88
2023/09/23 00:18:45;;;;;;;299.33;170.60;;;12.80;99.90;;;;;;6246139;23;20247;-88
2023/09/23 00:21:12;;;;;;;300.67;171.53;;;12.80;99.90;;;;;;6245155;23;20078;-87
2023/09/23 00:23:39;;;;;;;299.23;172.03;;;12.80;99.90;;;;;;6247586;22;20054;-90
2023/09/23 00:26:07;;;;;;;297.50;172.83;;;12.80;99.90;;;;;;6246030;22;20016;-89
2023/09/23 00:28:36;;;;;;;299.97;171.53;;;12.90;99.90;;;;;;6271834;22;20023;-90
2023/09/23 00:31:14;;;;;;;299.53;171.50;;;12.80;99.90;;;;;;6247634;22;20047;-88
2023/09/23 00:33:44;;;;;;;302.10;172.17;;;12.80;99.90;;;;;;6247179;22;20091;-90
2023/09/23 00:36:12;;;;;;;301.10;170.53;;;12.70;99.90;;;;;;6220395;23;20497;-91
2023/09/23 00:38:41;;;;;;;300.73;171.10;;;12.70;99.90;;;;;;6221649;23;20017;-88
2023/09/23 00:41:08;;;;;;;302.90;171.27;;;12.70;99.90;;;;;;6248057;22;20248;-90
2023/09/23 00:43:34;;;;;;;302.57;171.60;;;12.70;99.90;;;;;;6269336;22;20337;-89
2023/09/23 00:46:06;;;;;;;302.70;171.97;;;12.60;99.90;;;;;;6245919;23;20094;-88
2023/09/23 00:48:50;;;;;;;302.17;171.23;;;12.30;99.90;;;;;;6220658;23;20025;-89
2023/09/23 00:51:21;;;;;;;306.57;172.90;;;12.60;99.90;;;;;;6221033;23;20022;-89
2023/09/23 00:53:47;;;;;;;321.37;175.03;;;12.60;99.90;;;;;;6245887;23;20402;-89
2023/09/23 00:56:15;;;;;;;303.03;172.43;;;12.60;99.90;;;;;;6245478;23;20354;-90
2023/09/23 00:58:42;;;;;;;309.60;170.73;;;13.00;99.90;;;;;;6247441;22;20096;-86
2023/09/23 01:01:08;;;;;;;310.20;171.67;;;13.30;99.90;;;;;;6247549;22;20441;-87
2023/09/23 01:03:38;;;;;;;325.10;176.03;;;12.60;99.90;;;;;;6246900;22;20454;-89
2023/09/23 01:06:15;;;;;;;323.30;174.57;;;13.00;99.90;;;;;;6245199;23;20258;-89
2023/09/23 01:08:45;;;;;;;311.40;173.53;;;12.50;99.90;;;;;;6247369;22;20278;-89
2023/09/23 01:11:12;;;;;;;299.37;171.47;;;12.90;99.90;;;;;;6245785;23;20243;-88
2023/09/23 01:13:38;;;;;;;301.50;171.67;;;12.50;99.90;;;;;;6245557;23;20644;-89
2023/09/23 01:16:12;;;;;;;301.63;171.47;;;12.50;99.90;;;;;;6246828;22;20243;-86
2023/09/23 01:18:39;;;;;;;300.40;171.60;;;12.50;99.90;;;;;;6246933;22;20095;-88
2023/09/23 01:24:46;;;;;;;285.80;170.17;;;12.50;99.90;;;;;;6246906;23;20253;-90
2023/09/23 01:27:14;;;;;;;288.60;170.27;;;12.50;99.90;;;;;;6245076;23;20481;-86
2023/09/23 01:29:43;;;;;;;291.17;170.20;;;12.40;99.90;;;;;;6245628;23;20016;-87
2023/09/23 01:32:35;;;;;;;263.00;160.83;;;12.40;99.90;;;;;;6246571;22;20053;-87
2023/09/23 01:35:09;;;;;;;256.93;160.07;;;12.40;99.90;;;;;;6244578;23;20081;-88
2023/09/23 01:37:41;;;;;;;258.57;160.77;;;12.30;99.90;;;;;;6245505;23;20401;-88
2023/09/23 01:40:08;;;;;;;260.80;161.23;;;12.30;99.90;;;;;;6245382;23;20023;-88
2023/09/23 01:42:35;;;;;;;264.80;162.57;;;12.30;99.90;;;;;;6245366;23;20016;-88
2023/09/23 01:45:03;;;;;;;265.03;161.63;;;12.30;99.90;;;;;;6246808;22;20020;-87
2023/09/23 01:47:32;;;;;;;269.67;163.63;;;13.10;99.90;;;;;;6247519;22;20047;-89
2023/09/23 01:50:03;;;;;;;270.27;162.97;;;12.80;99.90;;;;;;6246052;23;20017;-87
2023/09/23 01:52:40;;;;;;;273.93;164.33;;;12.20;99.90;;;;;;6246538;22;20039;-87
2023/09/23 01:55:09;;;;;;;276.20;164.97;;;12.20;99.90;;;;;;6246268;22;20024;-86
2023/09/23 01:57:36;;;;;;;280.60;166.57;;;12.20;99.90;;;;;;6245546;22;20020;-87
2023/09/23 02:00:12;;;;;;;279.73;166.07;;;12.20;99.90;;;;;;6246216;22;20243;-89
2023/09/23 02:02:41;;;;;;;276.33;163.97;;;12.20;99.90;;;;;;6244639;23;20051;-87
2023/09/23 02:05:08;;;;;;;279.37;165.83;;;12.20;99.90;;;;;;6244380;23;20020;-88
2023/09/23 02:07:34;;;;;;;281.90;167.07;;;12.20;99.90;;;;;;6246322;22;20016;-88
2023/09/23 02:10:00;;;;;;;284.33;168.07;;;12.00;99.90;;;;;;6246561;22;20016;-88
2023/09/23 02:12:26;;;;;;;284.10;167.33;;;12.10;99.90;;;;;;6244864;23;20254;-86
2023/09/23 02:14:53;;;;;;;284.70;167.47;;;12.10;99.90;;;;;;6245402;22;20019;-86
2023/09/23 02:17:20;;;;;;;284.03;168.03;;;12.10;99.90;;;;;;6219377;23;20103;-90
2023/09/23 02:19:47;;;;;;;281.70;166.70;;;12.10;99.90;;;;;;6244543;23;20339;-86
2023/09/23 02:22:18;;;;;;;280.23;165.47;;;12.10;99.90;;;;;;6218726;23;20020;-88
2023/09/23 02:24:44;;;;;;;280.17;165.37;;;12.10;99.90;;;;;;6246282;22;20020;-89
2023/09/23 02:27:12;;;;;;;286.93;167.73;;;12.10;99.90;;;;;;6244540;23;20044;-87
2023/09/23 02:29:40;;;;;;;287.30;169.37;;;12.00;99.90;;;;;;6245941;22;20091;-86
2023/09/23 02:32:06;;;;;;;286.40;168.73;;;12.20;99.90;;;;;;6244181;23;20393;-86
2023/09/23 02:34:36;;;;;;;286.00;168.30;;;12.20;99.90;;;;;;6244173;23;20079;-88
2023/09/23 02:37:02;;;;;;;285.20;168.03;;;12.00;99.90;;;;;;6219415;23;20109;-87
2023/09/23 02:39:30;;;;;;;282.87;166.63;;;12.00;99.90;;;;;;6244185;23;20016;-88
2023/09/23 02:41:56;;;;;;;286.90;167.90;;;11.90;99.90;;;;;;6219122;23;20338;-87
2023/09/23 02:44:24;;;;;;;284.83;166.63;;;12.60;99.90;;;;;;6245162;22;20020;-86
2023/09/23 02:46:52;;;;;;;291.97;169.83;;;12.00;99.90;;;;;;6244018;23;20454;-89
2023/09/23 02:49:19;;;;;;;290.03;169.20;;;12.20;99.90;;;;;;6246092;22;20016;-86
2023/09/23 02:51:45;;;;;;;291.57;167.87;;;11.80;99.90;;;;;;6243267;23;20023;-86
2023/09/23 02:54:13;;;;;;;292.93;168.00;;;11.80;99.90;;;;;;6244075;23;20039;-85
2023/09/23 02:56:42;;;;;;;295.40;168.17;;;11.90;99.90;;;;;;6218698;23;20015;-86
2023/09/23 02:59:15;;;;;;;298.40;169.00;;;11.80;99.90;;;;;;6246534;22;20057;-87
2023/09/23 03:01:45;;;;;;;299.23;169.00;;;11.80;99.90;;;;;;6246395;22;20302;-86
2023/09/23 03:04:16;;;;;;;311.50;172.00;;;12.10;99.90;;;;;;6245802;22;20016;-90
2023/09/23 03:06:50;;;;;;;307.93;171.03;;;11.80;99.90;;;;;;6246458;22;20246;-86
2023/09/23 03:09:23;;;;;;;302.60;167.98;;;11.80;99.90;;;;;;6245224;23;20255;-88
2023/09/23 03:11:56;;;;;;;299.67;168.50;;;11.80;99.90;;;;;;6245637;22;20024;-89
2023/09/23 03:14:42;;;;;;;298.80;168.80;;;11.80;99.90;;;;;;6244093;23;20028;-88
2023/09/23 03:17:09;;;;;;;300.27;170.70;;;11.90;99.90;;;;;;6218893;23;20566;-90
2023/09/23 03:19:36;;;;;;;294.97;167.33;;;12.40;99.90;;;;;;6244159;23;20455;-88
2023/09/23 03:22:02;;;;;;;296.90;168.57;;;11.70;99.90;;;;;;6245515;23;20590;-85
2023/09/23 03:24:29;;;;;;;298.83;169.33;;;12.30;99.90;;;;;;6243966;23;20243;-88
2023/09/23 03:26:58;;;;;;;296.17;167.47;;;11.80;99.90;;;;;;6244232;23;20119;-87
2023/09/23 03:29:28;;;;;;;300.00;170.83;;;11.80;99.90;;;;;;6246308;22;20026;-88
2023/09/23 03:31:58;;;;;;;296.83;169.13;;;11.80;99.90;;;;;;6244277;23;20070;-92
2023/09/23 03:34:25;;;;;;;298.13;169.90;;;11.80;99.90;;;;;;6245441;22;20321;-92
2023/09/23 03:36:53;;;;;;;298.03;169.87;;;12.20;99.90;;;;;;6245896;22;20016;-90
2023/09/23 03:39:19;;;;;;;295.77;169.27;;;11.70;99.90;;;;;;6244227;23;20020;-89
2023/09/23 03:41:46;;;;;;;293.17;168.30;;;12.60;99.90;;;;;;6244632;23;20012;-92
2023/09/23 03:44:16;;;;;;;294.77;169.07;;;12.30;99.90;;;;;;6244006;23;20024;-90
2023/09/23 03:46:50;;;;;;;292.70;168.67;;;11.70;99.90;;;;;;6245957;22;20354;-89
2023/09/23 03:49:17;;;;;;;292.03;169.07;;;11.70;99.90;;;;;;6244203;23;20090;-90
2023/09/23 03:51:44;;;;;;;293.67;169.93;;;11.70;99.90;;;;;;6245995;22;20724;-90
2023/09/23 03:54:10;;;;;;;292.60;169.73;;;11.60;99.90;;;;;;6243769;23;20275;-90
2023/09/23 03:56:39;;;;;;;291.93;169.30;;;11.60;99.90;;;;;;6244571;23;20013;-91
2023/09/23 03:59:05;;;;;;;291.47;168.80;;;11.60;99.90;;;;;;6246583;23;20056;-92
2023/09/23 04:01:38;;;;;;;290.90;168.40;;;11.60;99.90;;;;;;6246310;23;20565;-90
2023/09/23 04:04:06;;;;;;;294.23;169.83;;;11.30;99.90;;;;;;6246180;23;20314;-91
2023/09/23 04:06:33;;;;;;;294.47;170.00;;;11.50;99.90;;;;;;6245572;23;20050;-91
2023/09/23 04:08:59;;;;;;;292.47;168.87;;;12.00;99.90;;;;;;6245876;23;20267;-91
2023/09/23 04:11:26;;;;;;;293.87;169.60;;;12.00;99.90;;;;;;6247890;22;20334;-91
2023/09/23 04:13:54;;;;;;;295.20;170.97;;;11.50;99.90;;;;;;6245805;23;20099;-91
2023/09/23 04:16:20;;;;;;;289.30;168.53;;;11.50;99.90;;;;;;6247787;22;20261;-90
2023/09/23 04:18:46;;;;;;;290.33;168.87;;;11.50;99.90;;;;;;6245878;23;20508;-91
2023/09/23 04:21:13;;;;;;;288.83;167.83;;;11.60;99.90;;;;;;6245991;23;20024;-91
2023/09/23 04:23:39;;;;;;;287.87;168.10;;;11.50;99.90;;;;;;6221200;23;20047;-91
2023/09/23 04:26:05;;;;;;;287.40;167.97;;;11.50;99.90;;;;;;6247674;22;20304;-92
2023/09/23 04:28:31;;;;;;;287.60;167.70;;;11.60;99.90;;;;;;6246134;23;20102;-93
2023/09/23 04:30:57;;;;;;;285.70;167.97;;;11.60;99.90;;;;;;6247511;22;20086;-91
2023/09/23 04:33:26;;;;;;;285.87;167.30;;;11.60;99.90;;;;;;6245855;23;20028;-91
2023/09/23 04:35:52;;;;;;;286.50;167.43;;;11.60;99.90;;;;;;6246518;23;20027;-91
2023/09/23 04:38:18;;;;;;;288.13;167.70;;;12.10;99.90;;;;;;6246322;23;20016;-89
2023/09/23 04:40:44;;;;;;;287.57;167.70;;;11.60;99.90;;;;;;6245969;23;20016;-89
2023/09/23 04:43:13;;;;;;;288.37;168.57;;;11.60;99.90;;;;;;6245944;23;20262;-91
2023/09/23 04:45:39;;;;;;;287.00;167.40;;;11.60;99.90;;;;;;6246118;23;20094;-92
2023/09/23 04:48:06;;;;;;;288.70;168.27;;;11.60;99.90;;;;;;6245684;23;20251;-90
2023/09/23 04:50:32;;;;;;;288.63;168.33;;;11.60;99.90;;;;;;6247068;23;20096;-90
2023/09/23 04:52:59;;;;;;;288.37;167.73;;;11.70;99.90;;;;;;6246189;23;20236;-91
2023/09/23 04:55:26;;;;;;;289.23;168.47;;;11.60;99.90;;;;;;6216325;23;20739;-92
2023/09/23 04:57:51;;;;;;;290.17;168.23;;;11.70;99.90;;;;;;6217127;23;20412;-93
2023/09/23 05:00:18;;;;;;;290.30;169.07;;;12.00;99.90;;;;;;6217504;23;20079;-92
2023/09/23 05:02:47;;;;;;;287.30;167.03;;;11.60;99.90;;;;;;6190468;23;20016;-91
2023/09/23 05:05:13;;;;;;;287.20;167.40;;;11.70;99.90;;;;;;6190685;23;20459;-91
2023/09/23 05:07:39;;;;;;;286.07;167.17;;;11.60;99.90;;;;;;6190722;23;20251;-91
2023/09/23 05:10:06;;;;;;;288.13;167.77;;;11.60;99.90;;;;;;6217024;23;20388;-91
2023/09/23 05:12:32;;;;;;;286.87;168.00;;;11.70;99.90;;;;;;6217637;23;20114;-90
2023/09/23 05:14:58;;;;;;;285.57;167.40;;;11.60;99.90;;;;;;6166515;23;20286;-92
2023/09/23 05:17:27;;;;;;;283.07;166.20;;;11.60;99.90;;;;;;6191319;23;20012;-92
2023/09/23 05:19:53;;;;;;;285.10;167.20;;;11.70;99.90;;;;;;6218133;23;20034;-92
2023/09/23 05:22:19;;;;;;;280.93;165.23;;;11.60;99.90;;;;;;6192959;23;20044;-89
2023/09/23 05:24:47;;;;;;;280.50;165.00;;;11.80;99.90;;;;;;6218887;23;20020;-91
2023/09/23 05:27:16;;;;;;;287.07;168.80;;;11.50;99.90;;;;;;6221238;23;20013;-92
2023/09/23 05:29:44;;;;;;;280.17;164.87;;;11.20;99.90;;;;;;6169241;23;20741;-91
2023/09/23 05:32:11;;;;;;;284.37;167.53;;;12.00;99.90;;;;;;6169599;23;20021;-91
2023/09/23 05:34:40;;;;;;;285.23;168.57;;;11.70;99.90;;;;;;6222461;23;20271;-91
2023/09/23 05:37:06;;;;;;;289.93;169.47;;;11.50;99.90;;;;;;6224166;23;20020;-90
2023/09/23 05:39:34;;;;;;;291.20;167.67;;;11.40;99.90;;;;;;6196778;23;20252;-91
2023/09/23 05:42:02;;;;;;;295.40;170.43;;;11.40;99.90;;;;;;6165631;23;20284;-90
2023/09/23 05:44:27;;;;;;;294.27;168.77;;;12.00;99.90;;;;;;6216722;23;20232;-91
2023/09/23 05:46:56;;;;;;;296.13;169.33;;;11.40;99.90;;;;;;6190647;23;20247;-91
2023/09/23 05:49:22;;;;;;;294.93;170.03;;;11.40;99.90;;;;;;6189855;23;20467;-91
2023/09/23 05:51:52;;;;;;;293.37;168.40;;;11.30;99.90;;;;;;6189906;23;20260;-86
2023/09/23 05:54:20;;;;;;;295.43;169.57;;;11.30;99.90;;;;;;6190323;23;20016;-90
2023/09/23 05:56:46;;;;;;;297.17;169.87;;;11.20;99.90;;;;;;6216724;23;20556;-91
2023/09/23 05:59:12;;;;;;;296.73;168.63;;;11.30;99.90;;;;;;6216709;23;20254;-91
2023/09/23 06:01:40;;;;;;;297.43;168.83;;;11.30;99.90;;;;;;6190425;23;20330;-90
2023/09/23 06:04:09;;;;;;;297.50;169.00;;;11.30;99.90;;;;;;6216736;23;20240;-92
2023/09/23 06:06:40;;;;;;;297.83;169.40;;;11.30;99.90;;;;;;6190068;23;20362;-90
2023/09/23 06:09:06;;;;;;;299.53;170.53;;;11.30;99.90;;;;;;6190009;23;20262;-91
2023/09/23 06:11:33;;;;;;;296.70;169.60;;;11.50;99.90;;;;;;6190029;23;20325;-91
2023/09/23 06:14:01;;;;;;;297.10;169.77;;;11.30;99.90;;;;;;6189643;23;20276;-89
2023/09/23 06:16:27;;;;;;;293.40;167.17;;;11.40;99.90;;;;;;6190278;23;20396;-91
2023/09/23 06:18:52;;;;;;;295.60;169.70;;;11.50;99.90;;;;;;6189893;23;20036;-90
2023/09/23 06:21:18;;;;;;;296.33;169.13;;;11.40;99.90;;;;;;6164677;23;20020;-86
2023/09/23 06:23:44;;;;;;;297.60;170.40;;;11.50;99.90;;;;;;6189969;23;20023;-91
2023/09/23 06:26:10;;;;;;;293.50;167.37;;;11.50;99.90;;;;;;6216085;23;20091;-92
2023/09/23 06:28:36;;;;;;;296.70;169.20;;;11.20;99.90;;;;;;6216597;23;20248;-92
2023/09/23 06:31:09;;;;;;;298.70;169.03;;;11.80;99.90;;;;;;6165614;23;20021;-92
2023/09/23 06:33:35;;;;;;;294.27;168.00;;;11.60;99.90;;;;;;6189974;23;20264;-90
2023/09/23 06:44:07;;;;;;;293.63;168.20;;;11.80;99.90;;;;;;6215365;23;20271;-87
2023/09/23 06:46:33;;;;;;;296.00;169.67;;;11.80;99.90;;;;;;6187924;23;20331;-87
2023/09/23 06:48:59;;;;;;;295.27;168.33;;;11.90;99.90;;;;;;6187696;23;20302;-85
2023/09/23 06:51:27;;;;;;;295.53;169.17;;;12.00;99.90;;;;;;6163482;23;20008;-85
2023/09/23 06:53:53;;;;;;;293.63;169.57;;;12.00;99.90;;;;;;6215728;23;20386;-88
2023/09/23 06:56:18;;;;;;;291.73;169.13;;;12.00;99.90;;;;;;6213568;23;20251;-86
2023/09/23 06:58:44;;;;;;;284.97;166.00;;;12.10;99.90;;;;;;6245963;23;20024;-87
2023/09/23 07:01:10;;;;;;;288.93;168.27;;;12.20;99.90;;;;;;6243671;23;20013;-86
2023/09/23 07:03:38;;;;;;;285.83;167.57;;;12.30;99.90;;;;;;6244220;23;20015;-87
2023/09/23 07:06:06;;;;;;;289.30;169.00;;;12.30;99.90;;;;;;6243974;23;20393;-86
2023/09/23 07:08:32;;;;;;;285.63;168.07;;;12.40;99.90;;;;;;6243599;23;20246;-88
2023/09/23 07:11:03;;;;;;;286.70;167.97;;;12.80;99.90;;;;;;6219066;23;20020;-88
2023/09/23 07:13:30;;;;;;;283.17;166.13;;;12.50;99.90;;;;;;6244224;23;20027;-86
2023/09/23 07:15:56;;;;;;;287.17;168.37;;;13.00;99.90;;;;;;6244132;23;20036;-88
2023/09/23 07:18:22;;;;;;;291.07;168.80;;;12.70;99.90;;;;;;6218273;23;20142;-87
2023/09/23 07:20:48;;;;;;;289.73;168.33;;;12.70;99.90;;;;;;6244599;23;20016;-86
2023/09/23 07:23:13;;;;;;;293.87;169.67;;;12.80;99.90;;;;;;6218479;23;20328;-86
2023/09/23 07:25:42;;;;;;;300.63;170.07;;;12.80;99.90;;;;;;6243983;23;20398;-86
2023/09/23 07:28:13;;;;;;;301.50;171.00;;;12.90;99.90;;;;;;6245106;22;20085;-90
2023/09/23 07:30:39;;;;;;;297.20;170.00;;;12.90;99.90;;;;;;6219210;23;20764;-85
2023/09/23 07:33:16;;;;;;;295.87;170.13;;;13.00;99.90;;;;;;6220604;23;20251;-88
2023/09/23 07:35:43;;;;;;;299.33;170.93;;;13.10;99.90;;;;;;6220048;23;20297;-85
2023/09/23 07:38:08;;;;;;;299.03;170.83;;;13.20;99.90;;;;;;6247570;22;20266;-83
2023/09/23 07:40:39;;;;;;;296.93;170.33;;;13.20;99.90;;;;;;6247300;22;20724;-86
2023/09/23 07:43:05;;;;;;;298.53;170.40;;;13.80;99.90;;;;;;6245651;23;20447;-85
2023/09/23 07:45:30;;;;;;;299.13;170.67;;;13.50;99.90;;;;;;6218752;23;20012;-85
2023/09/23 07:47:56;;;;;;;298.47;170.67;;;13.40;99.90;;;;;;6245123;23;20411;-85
2023/09/23 07:50:22;;;;;;;298.03;170.40;;;13.40;99.90;;;;;;6244561;23;20020;-84
2023/09/23 07:52:48;;;;;;;300.43;171.20;;;13.50;99.90;;;;;;6245181;23;20012;-84
2023/09/23 07:55:13;;;;;;;297.77;169.10;;;13.50;99.90;;;;;;6243381;23;20355;-84
2023/09/23 07:57:39;;;;;;;299.90;170.63;;;13.60;99.90;;;;;;6189714;23;20021;-85
2023/09/23 08:00:08;;;;;;;298.63;171.00;;;13.60;99.90;;;;;;6189467;23;20021;-85
2023/09/23 08:02:35;;;;;;;289.13;168.97;;;13.70;99.90;;;;;;6164718;23;20012;-85
2023/09/23 08:05:04;;;;;;;282.37;168.70;;;13.80;99.90;;;;;;6189568;23;20399;-85
2023/09/23 08:07:31;;;;;;;271.50;165.07;;;14.00;99.90;;;;;;6165019;23;20284;-86
2023/09/23 08:09:57;;;;;;;276.47;166.33;;;14.20;99.90;;;;;;6164819;23;20021;-86
2023/09/23 08:12:23;;;;;;;281.90;167.57;;;14.30;99.90;;;;;;6189041;23;20017;-85
2023/09/23 08:14:50;;;;;;;281.10;167.87;;;14.30;99.90;;;;;;6189565;23;20368;-86
2023/09/23 08:17:17;;;;;;;284.50;168.20;;;14.30;99.90;;;;;;6216784;23;20013;-85
2023/09/23 08:19:44;;;;;;;284.00;168.63;;;14.40;99.90;;;;;;6189575;23;20446;-84
2023/09/23 08:22:10;;;;;;;284.03;168.50;;;14.50;99.90;;;;;;6189691;23;20052;-86
2023/09/23 08:24:37;;;;;;;285.10;169.33;;;14.50;99.90;;;;;;6189532;23;20016;-87
2023/09/23 08:27:05;;;;;;;285.40;168.87;;;14.50;99.90;;;;;;6189344;23;20016;-86
2023/09/23 08:29:30;;;;;;;290.27;170.23;;;14.50;99.90;;;;;;6189752;23;20032;-85
2023/09/23 08:31:56;;;;;;;291.70;170.90;;;14.50;99.90;;;;;;6189207;23;20017;-86
2023/09/23 08:34:24;;;;;;;285.87;168.87;;;14.50;99.90;;;;;;6189038;23;20151;-86
2023/09/23 08:36:50;;;;;;;294.33;171.07;;;14.50;99.90;;;;;;6189470;23;20096;-86
2023/09/23 08:39:16;;;;;;;290.20;169.67;;;14.50;99.90;;;;;;6189801;23;20351;-86
2023/09/23 08:41:51;;;;;;;290.60;169.97;;;14.50;99.90;;;;;;6188966;23;20255;-88
2023/09/23 08:44:24;;;;;;;292.30;170.82;;;14.60;99.90;;;;;;6216127;23;20028;-87
2023/09/23 08:46:52;;;;;;;293.40;171.70;;;14.60;99.90;;;;;;6189456;23;20025;-83
2023/09/23 08:49:23;;;;;;;278.37;167.13;;;14.80;99.90;;;;;;6189808;23;20020;-82
2023/09/23 08:51:53;;;;;;;280.40;168.30;;;14.70;99.90;;;;;;6216023;23;20016;-82
2023/09/23 08:54:22;;;;;;;254.13;154.77;;;14.80;99.90;;;;;;6189233;23;20276;-82
2023/09/23 08:56:48;;;;;;;265.17;163.37;;;15.00;99.90;;;;;;6226881;23;20086;-83
2023/09/23 08:59:14;;;;;;;278.13;169.80;;;15.00;99.90;;;;;;6245084;23;20016;-82
2023/09/23 09:01:44;;;;;;;280.90;168.53;;;15.10;99.90;;;;;;6246640;22;20395;-82
2023/09/23 09:04:14;;;;;;;267.93;165.20;;;15.20;99.90;;;;;;6245962;22;20024;-82
2023/09/23 09:06:50;;;;;;;261.00;157.80;;;15.60;99.90;;;;;;6246199;22;20017;-82
2023/09/23 09:09:16;;;;;;;273.87;165.13;;;15.50;99.90;;;;;;6244844;23;20027;-82
2023/09/23 09:11:45;;;;;;;271.97;167.00;;;15.60;99.90;;;;;;6246678;22;20019;-82
2023/09/23 09:14:11;;;;;;;274.00;168.50;;;15.80;99.90;;;;;;6246421;22;20024;-83
2023/09/23 09:16:38;;;;;;;268.07;167.17;;;15.80;99.90;;;;;;6244537;23;20019;-84
2023/09/23 09:19:04;;;;;;;271.80;167.57;;;16.00;99.90;;;;;;6246727;22;20095;-82
2023/09/23 09:21:31;;;;;;;266.90;168.40;;;16.10;99.90;;;;;;6244940;23;20019;-82
2023/09/23 09:23:58;;;;;;;261.07;168.20;;;16.00;99.90;;;;;;6246526;22;20016;-83
2023/09/23 09:26:24;;;;;;;267.83;168.60;;;16.30;99.90;;;;;;6246463;22;20019;-82
2023/09/23 09:28:50;;;;;;;271.57;169.13;;;16.40;99.90;;;;;;6246287;22;20020;-82
2023/09/23 09:31:17;;;;;;;265.50;166.50;;;16.50;99.90;;;;;;6245874;22;20458;-84
2023/09/23 09:33:47;;;;;;;265.33;166.47;;;16.70;99.90;;;;;;6244291;23;20023;-83
2023/09/23 09:36:19;;;;;;;253.87;164.97;;;16.80;99.90;;;;;;6244437;23;20320;-82
2023/09/23 09:38:44;;;;;;;259.40;167.23;;;16.90;99.90;;;;;;6246091;22;20251;-82
2023/09/23 09:41:14;;;;;;;260.07;165.87;;;16.90;99.90;;;;;;6244650;23;20049;-82
2023/09/23 09:43:40;;;;;;;253.07;165.77;;;16.90;99.90;;;;;;6246331;22;20012;-82
2023/09/23 09:46:12;;;;;;;259.53;167.83;;;17.00;99.90;;;;;;6219283;23;20027;-82
2023/09/23 09:48:41;;;;;;;235.17;159.67;;;17.10;99.90;;;;;;6245864;22;20016;-81
2023/09/23 09:51:07;;;;;;;241.17;162.40;;;17.20;99.90;;;;;;6244407;23;20091;-83
2023/09/23 09:53:36;;;;;;;255.13;167.27;;;17.30;99.90;;;;;;6245922;22;20012;-83
2023/09/23 09:56:04;;;;;;;269.70;169.93;;;17.40;99.90;;;;;;6236841;22;20031;-82
2023/09/23 09:58:37;;;;;;;263.93;168.33;;;17.50;99.90;;;;;;6215801;23;20017;-82
2023/09/23 10:01:04;;;;;;;272.70;170.90;;;17.60;99.90;;;;;;6215056;23;20027;-81
2023/09/23 10:03:30;;;;;;;276.63;170.37;;;17.70;99.90;;;;;;6215658;23;20035;-82
2023/09/23 10:06:02;;;;;;;259.83;168.70;;;17.80;99.90;;;;;;6188812;23;20459;-85
2023/09/23 10:08:36;;;;;;;279.33;172.50;;;17.90;99.90;;;;;;6216161;23;20031;-83
2023/09/23 10:11:04;;;;;;;300.63;173.67;;;18.10;99.90;;;;;;6189274;23;20447;-84
2023/09/23 10:13:31;;;;;;;268.07;169.37;;;18.20;99.90;;;;;;6215800;23;20020;-88
2023/09/23 10:16:04;;;;;;;279.20;172.30;;;18.50;99.90;;;;;;6189293;23;20019;-89
2023/09/23 10:18:35;;;;;;;281.53;172.03;;;18.60;99.90;;;;;;6189617;23;20078;-86
2023/09/23 10:21:02;;;;;;;280.03;171.00;;;18.50;99.90;;;;;;6216243;23;20501;-84
2023/09/23 10:23:36;;;;;;;275.43;170.23;;;18.10;99.90;;;;;;6189536;23;20328;-87
2023/09/23 10:26:18;;;;;;;288.50;174.30;;;18.30;99.90;;;;;;6188954;23;20055;-82
2023/09/23 10:29:04;;;;;;;292.93;175.50;;;18.00;99.90;;;;;;6188947;23;20082;-81
2023/09/23 10:31:31;;;;;;;;;;;17.90;99.90;;;;;;6163556;23;20110;-81
2023/09/23 10:33:57;;;;;;;290.87;175.23;;;17.80;99.90;;;;;;6215234;23;20279;-83
2023/09/23 10:36:23;;;;;;;292.57;173.93;;;17.50;99.90;;;;;;6215487;23;20013;-82
2023/09/23 10:38:49;;;;;;;290.83;173.50;;;17.40;99.90;;;;;;6188844;23;20008;-83
2023/09/23 10:41:16;;;;;;;292.37;175.03;;;17.40;99.90;;;;;;6215234;23;20028;-81
2023/09/23 10:43:41;;;;;;;291.97;173.73;;;17.50;99.90;;;;;;6215472;23;20048;-81
2023/09/23 10:46:07;;;;;;;292.10;173.47;;;17.30;99.90;;;;;;6215415;23;20071;-82
2023/09/23 10:48:34;;;;;;;296.63;174.37;;;17.30;99.90;;;;;;6215499;23;20023;-81
2023/09/23 10:51:01;;;;;;;304.30;174.70;;;17.30;99.90;;;;;;6188515;23;20462;-81
2023/09/23 10:53:30;;;;;;;313.70;177.60;;;17.40;99.90;;;;;;6215353;23;20123;-82
2023/09/23 10:55:57;;;;;;;319.00;178.57;;;17.50;99.90;;;;;;6196852;23;20478;-82
2023/09/23 10:58:23;;;;;;;319.40;177.87;;;17.60;99.90;;;;;;6188907;23;20027;-82
2023/09/23 11:00:51;;;;;;;320.53;178.33;;;17.60;99.90;;;;;;6188456;23;20017;-82
2023/09/23 11:03:18;;;;;;;319.47;177.37;;;17.60;99.90;;;;;;6215650;23;20017;-81
2023/09/23 11:05:45;;;;;;;323.00;179.03;;;17.60;99.90;;;;;;6188713;23;20087;-82
2023/09/23 11:08:12;;;;;;;322.93;178.83;;;17.50;99.90;;;;;;6188555;23;20017;-83
2023/09/23 11:10:39;;;;;;;324.17;179.87;;;17.50;99.90;;;;;;6214914;23;20019;-84
2023/09/23 11:13:06;;;;;;;321.77;178.50;;;17.40;99.90;;;;;;6215107;23;20063;-83
2023/09/23 11:15:32;;;;;;;314.50;178.10;;;17.30;99.90;;;;;;6215354;23;20028;-82
2023/09/23 11:17:58;;;;;;;310.27;177.10;;;17.30;99.90;;;;;;6219415;23;20012;-84
2023/09/23 11:20:31;;;;;;;309.90;176.93;;;17.10;99.90;;;;;;6215132;23;20143;-83
2023/09/23 11:23:03;;;;;;;302.37;176.60;;;17.00;99.90;;;;;;6214827;23;20084;-83
2023/09/23 11:25:49;;;;;;;294.57;174.07;;;17.00;99.90;;;;;;6188932;23;20012;-83
2023/09/23 11:28:21;;;;;;;297.40;174.90;;;16.90;99.90;;;;;;6187586;23;20447;-83
2023/09/23 11:30:48;;;;;;;298.57;175.03;;;16.90;99.90;;;;;;6215453;23;20013;-84
2023/09/23 11:33:14;;;;;;;300.87;175.83;;;16.90;99.90;;;;;;6215233;23;20044;-83
2023/09/23 11:35:41;;;;;;;303.13;176.47;;;16.90;99.90;;;;;;6188614;23;20452;-84
2023/09/23 11:38:06;;;;;;;303.67;177.07;;;17.00;99.90;;;;;;6215124;23;20008;-83
2023/09/23 11:40:32;;;;;;;301.23;175.30;;;16.90;99.90;;;;;;6163385;23;20052;-83
2023/09/23 11:42:59;;;;;;;300.20;174.87;;;17.20;99.90;;;;;;6188484;23;20020;-83
2023/09/23 11:45:24;;;;;;;302.90;175.93;;;17.00;99.90;;;;;;6188429;23;20017;-83
2023/09/23 11:47:51;;;;;;;301.83;174.90;;;17.00;99.90;;;;;;6188712;23;20043;-82
2023/09/23 11:50:17;;;;;;;300.83;175.13;;;17.00;99.90;;;;;;6215734;23;20013;-85
2023/09/23 11:52:43;;;;;;;301.77;175.37;;;17.10;99.90;;;;;;6216360;23;20092;-83
2023/09/23 11:55:12;;;;;;;305.37;176.53;;;17.10;99.90;;;;;;6216150;23;20067;-83
2023/09/23 11:57:42;;;;;;;304.50;176.50;;;17.10;99.90;;;;;;6216104;23;20020;-81
2023/09/23 12:00:15;;;;;;;303.73;176.10;;;17.10;99.90;;;;;;6215160;23;20017;-83
2023/09/23 12:02:41;;;;;;;303.37;175.90;;;17.10;99.90;;;;;;6189816;23;20031;-82
2023/09/23 12:05:13;;;;;;;304.40;176.17;;;17.10;99.90;;;;;;6216729;23;20091;-81
2023/09/23 12:11:21;;;;;;;267.73;169.03;;;17.00;99.90;;;;;;6215408;23;20063;-84
2023/09/23 12:13:47;;;;;;;277.80;171.33;;;16.70;99.90;;;;;;6215708;23;20095;-82
2023/09/23 12:16:13;;;;;;;278.80;169.97;;;16.60;99.90;;;;;;6215471;23;20420;-82
2023/09/23 12:18:39;;;;;;;280.70;170.40;;;16.60;99.90;;;;;;6190319;23;20023;-84
2023/09/23 12:28:16;;;;;;;279.37;170.67;;;17.10;99.90;;;;;;6218365;23;20044;-85
2023/09/23 12:30:42;;;;;;;283.60;172.20;;;17.40;99.90;;;;;;6167119;23;20044;-83
2023/09/23 12:33:08;;;;;;;285.33;172.80;;;17.60;99.90;;;;;;6192277;23;20021;-87
2023/09/23 12:35:33;;;;;;;278.03;171.83;;;17.90;99.90;;;;;;6192710;23;20035;-86